CheckWX is a tool to help pilots better visualize weather data.  It is not intended as a substitute for an official pre-flight weather briefing.

06:10:39 UTC

KMIA TAF
Miami International Airport
Miami, Florida, USA
KMIA 260544Z 2606/2712 15005KT P6SM SCT020 SCT050 FM260700 16007KT P6SM VCSH SCT025 BKN050 FM261900 19012G22KT P6SM VCSH SCT025 BKN045 FM270200 24012KT P6SM SHRA SCT020 BKN040 FM270500 28010KT P6SM SHRA SCT015 BKN035 FM270600 31006KT P6SM SHRA SCT015 BKN035 FM271000 32006KT P6SM BKN100

Feb-26@
06:00 UTC

Feb-26 @ 06:00 UTC

Feb-26@
07:00 UTC

Feb-26 @ 07:00 UTC

KMIA 260544Z 2606/2712 15005KT P6SM SCT020 SCT050
Wind
  • 150° at 5 KTS
Cloud Levels
  • Scattered at 2,000' AGL
  • Scattered at 5,000' AGL

Feb-26@
07:00 UTC

Feb-26 @ 07:00 UTC

Feb-26@
19:00 UTC

Feb-26 @ 19:00 UTC

FM260700 16007KT P6SM VCSH SCT025 BKN050

From

From Standard forecast or significant change

Wind
  • 160° at 7 KTS
Cloud Levels
  • Scattered at 2,500' AGL
  • Broken at 5,000' AGL

Feb-26@
19:00 UTC

Feb-26 @ 19:00 UTC

Feb-27@
02:00 UTC

Feb-27 @ 02:00 UTC

FM261900 19012G22KT P6SM VCSH SCT025 BKN045

From

From Standard forecast or significant change

Wind
  • 190° at 12 KTS
  • {Gusting to 22 KTS
Cloud Levels
  • Scattered at 2,500' AGL
  • Broken at 4,500' AGL

Feb-27@
02:00 UTC

Feb-27 @ 02:00 UTC

Feb-27@
05:00 UTC

Feb-27 @ 05:00 UTC

FM270200 24012KT P6SM SHRA SCT020 BKN040

From

From Standard forecast or significant change

Wind
  • 240° at 12 KTS
Conditions
Rain
Cloud Levels
  • Scattered at 2,000' AGL
  • Broken at 4,000' AGL

Feb-27@
05:00 UTC

Feb-27 @ 05:00 UTC

Feb-27@
06:00 UTC

Feb-27 @ 06:00 UTC

FM270500 28010KT P6SM SHRA SCT015 BKN035

From

From Standard forecast or significant change

Wind
  • 280° at 10 KTS
Conditions
Rain
Cloud Levels
  • Scattered at 1,500' AGL
  • Broken at 3,500' AGL

Feb-27@
06:00 UTC

Feb-27 @ 06:00 UTC

Feb-27@
10:00 UTC

Feb-27 @ 10:00 UTC

FM270600 31006KT P6SM SHRA SCT015 BKN035

From

From Standard forecast or significant change

Wind
  • 310° at 6 KTS
Conditions
Rain
Cloud Levels
  • Scattered at 1,500' AGL
  • Broken at 3,500' AGL

Feb-27@
10:00 UTC

Feb-27 @ 10:00 UTC

Feb-27@
12:00 UTC

Feb-27 @ 12:00 UTC

FM271000 32006KT P6SM BKN100

From

From Standard forecast or significant change

Wind
  • 320° at 6 KTS
Cloud Levels
  • Broken at 10,000' AGL